Financing 2018-10-18T23:04:50+00:00

Finance Your Dreams!

Don’t put your dreams on hold!

Finance your flight training through our new partnership with Mountain America Credit Union!

There has never been a better time to pursue your dreams of becoming a pilot! Whether your flying dreams started when you were a child or if they started when you heard about the worldwide pilot shortage Axiom Aviation and Mountain America Credit Union are here to help!

Financing packages up to $25,000 and more!
Ask us about deferring interest accrual on your loan for up to 2 years.

Call us today at (262) AX-PILOT and let us walk you through the very easy application process. Get approved today and start flying tomorrow! (it’s really that fast)

“But wait… I don’t like the idea of taking out a loan for training. I think it’s better to work hard and save up money as I go through training slowly so I don’t have debt!”

Click here to find out why we think financing may be the best option for students in flight training.

Your Name (required)

Your Email (required)

Your Message

Current METAR

KOGD 151253Z AUTO 19004KT 10SM CLR M02/M08 A3034 RMK AO2 SLP284 T10221083